Lucia, California
Current Conditions -  °F | °C
As of 11:54 AM on Friday 24 Oct 2014 (Local Time) from KMRY Reporting Station
Scattered Clouds Scattered Clouds  
Wind Chill: 18°   Ceiling: Unl
Heat Index: 18°   Visibility: 10mi
Dew Point: 14°   Wind: 6mph
Humidity: 75%   Direction: 310°NW
Pressure: 29.98"   Gusts: NA
Location:  36.2518°N, 121.704°W
Report Text: KMRY 241854Z 31005KT 10SM SCT011 18/14 A2998 RMK AO2 SLP163 T01830139
Loading
Personal Weather Stations






























Interactive Weather Map
Tropical Storm Tracking
New forecast layout! Learn more

10-Day Weather Forecast

Advertisements
Track Severe Weather on mobile